Impacts TAF Board INFO
FOR SITUATIONAL AWARENESS. NOT TO BE USED FOR FLIGHT PLANNING PURPOSES.
IDs:

KMSY - New Orleans/Armstron, LA, US

Issued at 2341 UTC 20 Jan 2018
Updated at 0420 UTC 21 Jan 2018
Potential Impact None Slight Moderate High
Time0353Z 21/05Z 21/06Z 21/07Z 21/08Z 21/09Z 21/10Z 21/11Z 21/12Z 21/13Z 21/14Z 21/15Z 21/16Z 21/17Z>>
Type OBS PRVL PRVL PRVL PRVL PRVL PRVL PRVL
  [TEMP]  
PRVL
  [TEMP]  
PRVL
  [TEMP]  
PRVL PRVL PRVL PRVL
VIS 10 >6 >6 >6 >6 >6 >6 >6
  [4]  
>6
  [4]  
>6
  [4]  
>6 >6 >6 >6
CIG -- -- -- -- -- -- -- --
  [--]  
--
  [--]  
--
  [--]  
110 110 110 110
Cover FEW SCT SCT SCT SCT SCT SCT SCT
  [SCT]  
SCT
  [SCT]  
SCT
  [SCT]  
BKN BKN BKN BKN
FltCat VFR VFR VFR VFR VFR VFR VFR VFR
  [MVFR]  
VFR
  [MVFR]  
VFR
  [MVFR]  
VFR VFR VFR VFR
WX -- -- -- -- -- -- -- --
  [BR]  
--
  [BR]  
--
  [BR]  
-- -- -- --
WDir 120 120 120 120 120 120 120 120
[120]
120
[120]
120
[120]
130 130 130 130
WSpd 10 7 7 7 7 7 7 7
  [7]  
7
  [7]  
7
  [7]  
8 8 8 8
WGst -- -- -- -- -- -- -- --
  [--]  
--
  [--]  
--
  [--]  
-- -- -- --

Raw TAF
KMSY 202341Z 2100/2206 13014KT P6SM FEW035 SCT080 BKN100
  FM210200 12007KT P6SM FEW070 SCT100
  TEMPO 2111/2114 4SM BR
  FM211400 13008KT P6SM BKN110
  FM212200 13010KT P6SM BKN025
  FM220400 13009KT 4SM BR BKN008


Raw METAR
KMSY 210353Z 12010KT 10SM FEW085 14/11 A3020 RMK AO2 SLP230 T01390106
KMSY 210253Z 13009KT 10SM SCT090 14/11 A3021 RMK AO2 SLP233 60000 T01390106 53004
KMSY 210153Z 12008KT 10SM SCT085 14/11 A3021 RMK AO2 SLP232 T01440111

METAR Board
Radar Display
Forecast Discussion

FOR SITUATIONAL AWARENESS. NOT TO BE USED FOR FLIGHT PLANNING PURPOSES.